Time;durP1;ratioP1;P1;durP2;ratioP2;P2;SDS_P1;SDS_P2;PMS_P1;PMS_P2;Temp;Humidity;BMP_temperature;BMP_pressure;BME280_temperature;BME280_humidity;BME280_pressure;Samples;Min_cycle;Max_cycle;Signal;HPM_P1;HPM_P2
2023/04/28 00:02:02;;;;;;;7.10;5.40;;;;;;;;;;107592;284;44265;-35
2023/04/28 00:04:37;;;;;;;7.10;5.50;;;;;;;;;;107337;285;42416;-35
2023/04/28 00:07:12;;;;;;;6.90;5.50;;;;;;;;;;107576;285;39282;-35
2023/04/28 00:09:47;;;;;;;7.40;5.20;;;;;;;;;;107648;286;39703;-35
2023/04/28 00:12:23;;;;;;;7.00;5.40;;;;;;;;;;107641;283;43050;-35
2023/04/28 00:14:58;;;;;;;7.00;5.40;;;;;;;;;;107636;283;42087;-35
2023/04/28 00:17:33;;;;;;;7.10;5.30;;;;;;;;;;107629;285;38824;-35
2023/04/28 00:20:12;;;;;;;7.20;5.40;;;;;;;;;;107625;285;39871;-35
2023/04/28 00:22:48;;;;;;;6.90;5.20;;;;;;;;;;108003;277;43037;-35
2023/04/28 00:25:25;;;;;;;7.10;5.40;;;;;;;;;;107635;285;44262;-35
2023/04/28 00:28:00;;;;;;;7.60;5.40;;;;;;;;;;107611;277;38742;-33
2023/04/28 00:30:43;;;;;;;7.60;5.00;;;;;;;;;;107656;283;39510;-33
2023/04/28 00:33:17;;;;;;;7.30;5.00;;;;;;;;;;107608;285;43414;-33
2023/04/28 00:35:54;;;;;;;6.90;5.00;;;;;;;;;;107629;285;42210;-33
2023/04/28 00:38:28;;;;;;;7.10;5.20;;;;;;;;;;107574;285;38798;-33
2023/04/28 00:41:04;;;;;;;7.10;5.20;;;;;;;;;;107649;285;39634;-33
2023/04/28 00:43:50;;;;;;;6.90;5.00;;;;;;;;;;107651;285;43690;-33
2023/04/28 00:46:28;;;;;;;6.90;5.20;;;;;;;;;;107639;285;42130;-33
2023/04/28 00:49:07;;;;;;;6.80;5.10;;;;;;;;;;107626;285;38934;-33
2023/04/28 00:51:42;;;;;;;6.40;5.00;;;;;;;;;;107646;285;40175;-33
2023/04/28 00:54:20;;;;;;;7.20;5.30;;;;;;;;;;107620;285;42698;-33
2023/04/28 00:56:56;;;;;;;7.00;5.00;;;;;;;;;;107605;282;42271;-33
2023/04/28 00:59:31;;;;;;;7.00;5.00;;;;;;;;;;107585;283;38905;-33
2023/04/28 01:02:08;;;;;;;6.90;5.20;;;;;;;;;;107657;285;39884;-33
2023/04/28 01:04:44;;;;;;;7.00;5.20;;;;;;;;;;107642;285;43111;-33
2023/04/28 01:07:20;;;;;;;6.70;5.20;;;;;;;;;;107647;285;42503;-33
2023/04/28 01:09:57;;;;;;;6.80;4.70;;;;;;;;;;107633;283;38784;-33
2023/04/28 01:12:35;;;;;;;6.70;4.90;;;;;;;;;;107623;285;39685;-33
2023/04/28 01:15:15;;;;;;;6.80;5.20;;;;;;;;;;107656;285;42981;-33
2023/04/28 01:17:52;;;;;;;6.80;5.20;;;;;;;;;;107616;285;42167;-33
2023/04/28 01:20:27;;;;;;;6.60;4.90;;;;;;;;;;107640;283;46954;-33
2023/04/28 01:23:01;;;;;;;6.90;5.40;;;;;;;;;;107636;277;39694;-33
2023/04/28 01:25:38;;;;;;;6.90;5.20;;;;;;;;;;107673;284;42900;-33
2023/04/28 01:28:14;;;;;;;6.90;5.00;;;;;;;;;;107628;284;42662;-33
2023/04/28 01:30:49;;;;;;;6.50;4.80;;;;;;;;;;107639;277;44998;-33
2023/04/28 01:33:23;;;;;;;6.70;5.00;;;;;;;;;;107641;285;39863;-33
2023/04/28 01:36:01;;;;;;;7.00;5.40;;;;;;;;;;107680;285;43923;-33
2023/04/28 01:38:36;;;;;;;7.30;5.10;;;;;;;;;;107604;283;42278;-33
2023/04/28 01:41:11;;;;;;;7.40;5.30;;;;;;;;;;107130;284;520691;-33
2023/04/28 01:43:46;;;;;;;7.10;5.30;;;;;;;;;;107652;285;39740;-33
2023/04/28 01:46:20;;;;;;;7.50;5.10;;;;;;;;;;107640;285;43045;-33
2023/04/28 01:48:56;;;;;;;7.50;5.60;;;;;;;;;;107562;283;42229;-33
2023/04/28 01:51:31;;;;;;;6.60;4.80;;;;;;;;;;107611;282;38765;-33
2023/04/28 01:54:06;;;;;;;7.30;5.10;;;;;;;;;;107620;283;39711;-33
2023/04/28 01:56:44;;;;;;;7.30;5.20;;;;;;;;;;107654;285;42911;-31
2023/04/28 01:59:19;;;;;;;7.10;5.10;;;;;;;;;;107717;283;42121;-31
2023/04/28 02:01:55;;;;;;;8.00;5.30;;;;;;;;;;107741;285;39965;-31
2023/04/28 02:04:31;;;;;;;7.00;5.10;;;;;;;;;;107766;285;39540;-31
2023/04/28 02:07:06;;;;;;;7.60;5.40;;;;;;;;;;107731;283;44194;-31
2023/04/28 02:09:43;;;;;;;7.00;5.00;;;;;;;;;;107725;285;43287;-31
2023/04/28 02:12:17;;;;;;;6.90;5.10;;;;;;;;;;107719;284;39956;-31
2023/04/28 02:14:52;;;;;;;7.40;5.30;;;;;;;;;;107693;285;39475;-31
2023/04/28 02:17:32;;;;;;;7.20;5.10;;;;;;;;;;107736;277;44133;-31
2023/04/28 02:20:07;;;;;;;6.60;4.80;;;;;;;;;;107681;285;42129;-31
2023/04/28 02:22:41;;;;;;;7.40;4.90;;;;;;;;;;107783;283;39150;-31
2023/04/28 02:25:17;;;;;;;7.30;5.10;;;;;;;;;;107682;289;39727;-31
2023/04/28 02:27:52;;;;;;;7.30;5.10;;;;;;;;;;107722;277;42950;-31
2023/04/28 02:30:27;;;;;;;7.30;5.20;;;;;;;;;;107712;285;43404;-31
2023/04/28 02:33:04;;;;;;;7.10;5.10;;;;;;;;;;107729;282;39031;-31
2023/04/28 02:35:38;;;;;;;7.80;5.40;;;;;;;;;;107665;285;40504;-32
2023/04/28 02:38:16;;;;;;;6.80;5.10;;;;;;;;;;107654;277;42945;-33
2023/04/28 02:40:51;;;;;;;7.10;5.00;;;;;;;;;;107647;277;42284;-33
2023/04/28 02:43:26;;;;;;;7.40;5.20;;;;;;;;;;107637;277;38813;-33
2023/04/28 02:46:02;;;;;;;6.80;5.20;;;;;;;;;;107704;283;39673;-32
2023/04/28 02:48:36;;;;;;;7.30;5.50;;;;;;;;;;107761;285;42913;-31
2023/04/28 02:51:10;;;;;;;7.30;5.20;;;;;;;;;;107721;283;42226;-31
2023/04/28 02:53:45;;;;;;;7.20;5.20;;;;;;;;;;107639;285;175335;-31
2023/04/28 02:56:22;;;;;;;6.90;5.00;;;;;;;;;;107763;285;39819;-31
2023/04/28 02:58:58;;;;;;;7.00;4.80;;;;;;;;;;107749;277;43110;-31
2023/04/28 03:01:36;;;;;;;7.20;5.30;;;;;;;;;;107691;277;42502;-31
2023/04/28 03:04:13;;;;;;;6.90;4.80;;;;;;;;;;107735;285;38828;-31
2023/04/28 03:06:47;;;;;;;7.40;5.10;;;;;;;;;;107754;285;39747;-31
2023/04/28 03:09:23;;;;;;;6.90;5.30;;;;;;;;;;107713;285;42920;-31
2023/04/28 03:11:59;;;;;;;7.00;5.00;;;;;;;;;;107700;277;42291;-33
2023/04/28 03:14:36;;;;;;;7.10;4.90;;;;;;;;;;107738;283;38789;-34
2023/04/28 03:17:13;;;;;;;7.70;5.20;;;;;;;;;;107753;285;40091;-34
2023/04/28 03:19:48;;;;;;;6.80;4.80;;;;;;;;;;107736;285;43065;-34
2023/04/28 03:22:24;;;;;;;6.60;4.80;;;;;;;;;;107640;283;42195;-35
2023/04/28 03:24:58;;;;;;;7.20;5.20;;;;;;;;;;107645;285;38924;-35
2023/04/28 03:27:34;;;;;;;6.90;5.10;;;;;;;;;;107638;283;39747;-35
2023/04/28 03:30:11;;;;;;;6.80;5.10;;;;;;;;;;107632;285;43377;-35
2023/04/28 03:32:46;;;;;;;6.40;4.80;;;;;;;;;;107654;283;42374;-35
2023/04/28 03:35:22;;;;;;;7.00;5.20;;;;;;;;;;107641;285;38925;-35
2023/04/28 03:37:57;;;;;;;6.80;4.90;;;;;;;;;;107609;285;39866;-35
2023/04/28 03:40:30;;;;;;;7.10;5.20;;;;;;;;;;107588;285;42993;-35
2023/04/28 03:43:07;;;;;;;7.50;5.40;;;;;;;;;;107572;283;42193;-36
2023/04/28 03:45:43;;;;;;;7.50;5.30;;;;;;;;;;107617;283;38926;-35
2023/04/28 03:48:17;;;;;;;7.60;5.10;;;;;;;;;;107633;285;39749;-36
2023/04/28 03:50:51;;;;;;;7.20;5.40;;;;;;;;;;107604;283;43301;-35
2023/04/28 03:53:26;;;;;;;7.20;5.20;;;;;;;;;;107613;283;47267;-35
2023/04/28 03:56:00;;;;;;;7.40;5.00;;;;;;;;;;107649;286;38794;-35
2023/04/28 03:58:36;;;;;;;7.30;5.20;;;;;;;;;;107624;285;41337;-35
2023/04/28 04:01:10;;;;;;;6.80;5.40;;;;;;;;;;107611;286;44069;-35
2023/04/28 04:03:45;;;;;;;6.80;5.20;;;;;;;;;;107618;285;48055;-35
2023/04/28 04:06:22;;;;;;;7.20;5.50;;;;;;;;;;107603;285;38794;-35
2023/04/28 04:08:58;;;;;;;7.20;5.00;;;;;;;;;;107523;285;175289;-35
2023/04/28 04:11:33;;;;;;;7.00;5.10;;;;;;;;;;107603;283;43181;-35
2023/04/28 04:14:09;;;;;;;6.80;5.00;;;;;;;;;;107599;283;43560;-35
2023/04/28 04:16:43;;;;;;;7.60;5.10;;;;;;;;;;107618;283;38815;-34
2023/04/28 04:19:20;;;;;;;7.30;5.50;;;;;;;;;;107635;286;40668;-34
2023/04/28 04:21:55;;;;;;;7.50;5.30;;;;;;;;;;107584;285;43362;-34
2023/04/28 04:24:32;;;;;;;6.90;5.10;;;;;;;;;;107600;285;48500;-34
2023/04/28 04:27:06;;;;;;;7.70;5.10;;;;;;;;;;107631;286;38829;-34
2023/04/28 04:29:41;;;;;;;7.70;5.50;;;;;;;;;;107618;285;39837;-34
2023/04/28 04:32:15;;;;;;;7.50;5.40;;;;;;;;;;107564;283;43003;-34
2023/04/28 04:34:50;;;;;;;7.40;5.20;;;;;;;;;;107625;283;48692;-34
2023/04/28 04:37:25;;;;;;;7.70;5.20;;;;;;;;;;107638;277;38667;-34
2023/04/28 04:39:59;;;;;;;7.80;5.40;;;;;;;;;;107652;285;40024;-34
2023/04/28 04:42:33;;;;;;;7.30;5.00;;;;;;;;;;107632;277;45471;-34
2023/04/28 04:45:09;;;;;;;6.60;4.90;;;;;;;;;;107652;285;49270;-34
2023/04/28 04:47:44;;;;;;;6.90;5.00;;;;;;;;;;107674;285;38928;-34
2023/04/28 04:50:19;;;;;;;6.80;5.10;;;;;;;;;;107657;285;39852;-34
2023/04/28 04:52:56;;;;;;;7.60;5.20;;;;;;;;;;107483;285;176842;-35
2023/04/28 04:55:30;;;;;;;6.90;5.30;;;;;;;;;;107610;283;48377;-35
2023/04/28 04:58:05;;;;;;;7.30;5.10;;;;;;;;;;107643;285;38838;-35
2023/04/28 05:00:40;;;;;;;7.20;5.30;;;;;;;;;;107626;283;39800;-36
2023/04/28 05:03:19;;;;;;;7.10;5.00;;;;;;;;;;107443;287;43073;-34
2023/04/28 05:05:54;;;;;;;6.70;5.10;;;;;;;;;;107631;285;48363;-33
2023/04/28 05:08:30;;;;;;;7.20;5.20;;;;;;;;;;107655;285;38891;-31
2023/04/28 05:11:05;;;;;;;6.60;4.90;;;;;;;;;;107632;285;39693;-31
2023/04/28 05:13:40;;;;;;;7.30;5.20;;;;;;;;;;107448;284;42888;-31
2023/04/28 05:16:15;;;;;;;7.30;5.10;;;;;;;;;;107663;285;48347;-31
2023/04/28 05:18:51;;;;;;;7.10;4.90;;;;;;;;;;107664;282;40314;-31
2023/04/28 05:21:27;;;;;;;7.30;5.00;;;;;;;;;;107632;285;39788;-31
2023/04/28 05:24:02;;;;;;;6.80;4.90;;;;;;;;;;107624;285;43037;-31
2023/04/28 05:26:37;;;;;;;7.20;4.70;;;;;;;;;;107637;285;48908;-31
2023/04/28 05:29:12;;;;;;;6.90;5.10;;;;;;;;;;107663;282;38895;-31
2023/04/28 05:31:47;;;;;;;7.70;5.50;;;;;;;;;;107624;285;40857;-31
2023/04/28 05:34:22;;;;;;;7.60;5.00;;;;;;;;;;107626;285;44099;-31
2023/04/28 05:36:56;;;;;;;6.70;4.70;;;;;;;;;;107620;285;49648;-31
2023/04/28 05:39:30;;;;;;;7.70;5.10;;;;;;;;;;107643;283;39904;-31
2023/04/28 05:42:06;;;;;;;7.60;5.00;;;;;;;;;;107649;282;39889;-31
2023/04/28 05:44:42;;;;;;;7.50;5.20;;;;;;;;;;106956;282;897296;-31
2023/04/28 05:47:16;;;;;;;7.40;5.30;;;;;;;;;;107659;283;49806;-31
2023/04/28 05:49:52;;;;;;;7.30;5.40;;;;;;;;;;107659;285;38833;-31
2023/04/28 05:52:28;;;;;;;7.80;5.40;;;;;;;;;;107671;285;39755;-31
2023/04/28 05:55:03;;;;;;;7.30;5.90;;;;;;;;;;107607;285;43197;-31
2023/04/28 05:57:38;;;;;;;8.70;5.40;;;;;;;;;;107636;285;48284;-31
2023/04/28 06:00:29;;;;;;;8.10;5.40;;;;;;;;;;107674;285;38884;-31
2023/04/28 06:03:09;;;;;;;7.30;5.40;;;;;;;;;;107660;285;39731;-32
2023/04/28 06:05:45;;;;;;;7.90;5.50;;;;;;;;;;107640;285;44505;-34
2023/04/28 06:08:23;;;;;;;7.40;5.30;;;;;;;;;;107655;283;43480;-32
2023/04/28 06:11:00;;;;;;;8.30;5.40;;;;;;;;;;107712;283;40152;-31
2023/04/28 06:13:36;;;;;;;7.90;5.40;;;;;;;;;;107723;283;39869;-33
2023/04/28 06:16:10;;;;;;;7.70;5.60;;;;;;;;;;107732;285;42893;-32
2023/04/28 06:18:46;;;;;;;8.00;5.60;;;;;;;;;;107734;283;43375;-32
2023/04/28 06:21:23;;;;;;;7.70;5.60;;;;;;;;;;107725;285;39907;-32
2023/04/28 06:23:57;;;;;;;7.90;5.70;;;;;;;;;;107679;277;40783;-32
2023/04/28 06:26:33;;;;;;;7.20;5.20;;;;;;;;;;107632;283;43319;-32
2023/04/28 06:29:09;;;;;;;7.90;5.60;;;;;;;;;;107630;286;42267;-32
2023/04/28 06:31:43;;;;;;;7.50;5.30;;;;;;;;;;107660;277;38878;-31
2023/04/28 06:34:19;;;;;;;7.30;5.30;;;;;;;;;;107661;283;39801;-32
2023/04/28 06:36:55;;;;;;;7.30;5.20;;;;;;;;;;107620;283;43291;-33
2023/04/28 06:39:31;;;;;;;7.50;5.60;;;;;;;;;;107654;285;42269;-35
2023/04/28 06:42:06;;;;;;;7.80;5.50;;;;;;;;;;107656;283;38755;-33
2023/04/28 06:44:39;;;;;;;8.30;5.50;;;;;;;;;;107645;285;39803;-32
2023/04/28 06:47:16;;;;;;;8.10;5.40;;;;;;;;;;107635;285;42996;-32
2023/04/28 06:49:50;;;;;;;7.80;5.30;;;;;;;;;;107761;285;42268;-31
2023/04/28 06:52:27;;;;;;;8.00;5.50;;;;;;;;;;107799;283;38778;-32
2023/04/28 06:55:16;;;;;;;7.10;5.00;;;;;;;;;;107771;286;39685;-32
2023/04/28 06:57:51;;;;;;;7.10;5.00;;;;;;;;;;107786;285;44012;-32
2023/04/28 07:00:26;;;;;;;7.30;5.20;;;;;;;;;;107701;283;42188;-34
2023/04/28 07:03:00;;;;;;;7.50;5.10;;;;;;;;;;107034;285;897486;-34
2023/04/28 07:05:35;;;;;;;7.70;5.00;;;;;;;;;;107688;285;39752;-34
2023/04/28 07:08:12;;;;;;;7.80;5.20;;;;;;;;;;107623;285;43232;-32
2023/04/28 07:10:46;;;;;;;7.30;5.40;;;;;;;;;;107759;283;44221;-32
2023/04/28 07:13:20;;;;;;;8.60;5.10;;;;;;;;;;107750;283;38870;-32
2023/04/28 07:15:57;;;;;;;7.50;5.50;;;;;;;;;;107730;285;39679;-31
2023/04/28 07:18:33;;;;;;;8.00;5.30;;;;;;;;;;107729;285;42909;-32
2023/04/28 07:21:09;;;;;;;8.40;5.30;;;;;;;;;;107744;285;43281;-32
2023/04/28 07:23:43;;;;;;;7.40;5.40;;;;;;;;;;107685;285;38752;-33
2023/04/28 07:26:19;;;;;;;8.00;5.60;;;;;;;;;;107659;285;40880;-33
2023/04/28 07:28:53;;;;;;;8.00;5.20;;;;;;;;;;107613;282;42952;-33
2023/04/28 07:31:27;;;;;;;7.10;5.40;;;;;;;;;;107678;283;42189;-33
2023/04/28 07:34:01;;;;;;;9.00;5.50;;;;;;;;;;107686;285;38525;-33
2023/04/28 07:36:35;;;;;;;8.40;5.70;;;;;;;;;;107691;285;40909;-33
2023/04/28 07:39:09;;;;;;;8.80;5.30;;;;;;;;;;107626;285;44082;-33
2023/04/28 07:41:43;;;;;;;9.10;5.80;;;;;;;;;;107636;286;42183;-33
2023/04/28 07:44:17;;;;;;;8.80;5.50;;;;;;;;;;107559;285;175634;-33
2023/04/28 07:46:54;;;;;;;9.20;5.70;;;;;;;;;;107690;283;39742;-33
2023/04/28 07:49:28;;;;;;;8.80;5.50;;;;;;;;;;107615;284;43054;-33
2023/04/28 07:52:02;;;;;;;11.60;6.30;;;;;;;;;;107555;277;175627;-33
2023/04/28 07:54:38;;;;;;;8.90;5.70;;;;;;;;;;107629;285;38757;-33
2023/04/28 07:57:13;;;;;;;11.70;6.30;;;;;;;;;;107708;285;39505;-33
2023/04/28 07:59:47;;;;;;;10.20;6.40;;;;;;;;;;107706;283;42919;-32
2023/04/28 08:02:21;;;;;;;11.70;6.10;;;;;;;;;;107747;283;42253;-32
2023/04/28 08:04:55;;;;;;;10.60;6.60;;;;;;;;;;107745;285;38755;-32
2023/04/28 08:07:31;;;;;;;10.30;6.20;;;;;;;;;;107734;285;39754;-32
2023/04/28 08:10:10;;;;;;;10.60;6.40;;;;;;;;;;107709;284;48878;-32
2023/04/28 08:12:45;;;;;;;12.00;6.90;;;;;;;;;;107712;285;42218;-31
2023/04/28 08:15:21;;;;;;;13.10;6.70;;;;;;;;;;107542;283;39844;-32
2023/04/28 08:17:56;;;;;;;12.50;6.60;;;;;;;;;;107588;285;39974;-32
2023/04/28 08:20:31;;;;;;;12.80;6.80;;;;;;;;;;107646;277;50482;-32
2023/04/28 08:23:07;;;;;;;11.00;6.60;;;;;;;;;;107632;277;43360;-33
2023/04/28 08:25:42;;;;;;;11.40;7.00;;;;;;;;;;107637;283;39937;-32
2023/04/28 08:28:17;;;;;;;11.60;6.60;;;;;;;;;;107463;283;175243;-33
2023/04/28 08:30:52;;;;;;;11.00;6.50;;;;;;;;;;107627;284;50779;-33
2023/04/28 08:33:28;;;;;;;10.90;6.30;;;;;;;;;;107662;284;41943;-33
2023/04/28 08:36:04;;;;;;;9.00;5.60;;;;;;;;;;107632;285;38888;-36
2023/04/28 08:38:38;;;;;;;10.80;5.90;;;;;;;;;;107572;286;39776;-35
2023/04/28 08:41:16;;;;;;;9.20;5.70;;;;;;;;;;107511;290;49115;-35
2023/04/28 08:43:51;;;;;;;9.40;5.60;;;;;;;;;;107560;285;42622;-35
2023/04/28 08:46:31;;;;;;;10.50;5.50;;;;;;;;;;107595;284;40027;-34
2023/04/28 08:49:09;;;;;;;9.70;4.90;;;;;;;;;;107598;282;39704;-34
2023/04/28 08:51:51;;;;;;;10.80;5.80;;;;;;;;;;107634;282;43068;-34
2023/04/28 08:54:30;;;;;;;11.20;5.10;;;;;;;;;;107682;284;42201;-35
2023/04/28 08:57:07;;;;;;;10.20;5.40;;;;;;;;;;107618;284;40301;-35
2023/04/28 08:59:43;;;;;;;8.80;5.10;;;;;;;;;;107606;285;39897;-34
2023/04/28 09:02:19;;;;;;;10.00;5.10;;;;;;;;;;107598;284;43506;-34
2023/04/28 09:04:55;;;;;;;9.90;5.00;;;;;;;;;;107622;285;42908;-34
2023/04/28 09:07:31;;;;;;;8.60;4.60;;;;;;;;;;107679;284;38994;-34
2023/04/28 09:10:20;;;;;;;9.00;4.40;;;;;;;;;;107598;277;40914;-34
2023/04/28 09:12:59;;;;;;;8.30;4.40;;;;;;;;;;107642;282;42947;-35
2023/04/28 09:15:40;;;;;;;8.30;4.10;;;;;;;;;;107607;283;43268;-34
2023/04/28 09:18:18;;;;;;;8.90;4.50;;;;;;;;;;107609;283;38811;-35
2023/04/28 09:21:02;;;;;;;8.40;4.20;;;;;;;;;;107493;284;192858;-35
2023/04/28 09:23:50;;;;;;;9.80;4.40;;;;;;;;;;107640;282;44085;-34
2023/04/28 09:26:24;;;;;;;8.50;4.40;;;;;;;;;;107611;285;42625;-35
2023/04/28 09:29:14;;;;;;;8.80;3.90;;;;;;;;;;107595;282;38968;-35
2023/04/28 09:31:50;;;;;;;9.80;4.80;;;;;;;;;;107592;277;39776;-35
2023/04/28 09:34:26;;;;;;;10.20;5.30;;;;;;;;;;107590;282;42915;-34
2023/04/28 09:37:02;;;;;;;26.40;13.40;;;;;;;;;;107545;284;43297;-34
2023/04/28 09:39:39;;;;;;;17.00;8.70;;;;;;;;;;107229;286;446476;-34
2023/04/28 09:42:33;;;;;;;17.60;8.90;;;;;;;;;;107746;283;39719;-33
2023/04/28 09:45:10;;;;;;;15.50;8.30;;;;;;;;;;107670;285;43038;-33
2023/04/28 09:47:47;;;;;;;16.10;7.70;;;;;;;;;;107712;284;42210;-33
2023/04/28 09:50:21;;;;;;;13.50;7.20;;;;;;;;;;107609;277;39035;-33
2023/04/28 09:53:02;;;;;;;13.00;7.20;;;;;;;;;;107004;277;895078;-33
2023/04/28 09:55:38;;;;;;;12.90;7.00;;;;;;;;;;107674;283;43368;-33
2023/04/28 09:58:15;;;;;;;11.30;6.30;;;;;;;;;;107684;283;41916;-33
2023/04/28 10:00:54;;;;;;;10.90;6.20;;;;;;;;;;107619;285;38719;-34
2023/04/28 10:03:31;;;;;;;12.00;6.70;;;;;;;;;;107610;285;39820;-35
2023/04/28 10:06:08;;;;;;;9.70;5.00;;;;;;;;;;107616;285;42947;-35
2023/04/28 10:08:44;;;;;;;9.80;5.20;;;;;;;;;;107639;285;42178;-34
2023/04/28 10:11:19;;;;;;;9.50;5.30;;;;;;;;;;107581;284;38916;-36
2023/04/28 10:13:57;;;;;;;9.70;5.60;;;;;;;;;;107690;283;39780;-36
2023/04/28 10:16:35;;;;;;;9.80;5.10;;;;;;;;;;107639;284;42884;-36
2023/04/28 10:19:10;;;;;;;8.90;4.80;;;;;;;;;;107508;282;175538;-36
2023/04/28 10:21:58;;;;;;;9.50;4.90;;;;;;;;;;107603;284;38890;-36
2023/04/28 10:24:36;;;;;;;9.80;4.90;;;;;;;;;;107666;281;39972;-36
2023/04/28 10:27:15;;;;;;;9.80;4.80;;;;;;;;;;107618;282;43078;-36
2023/04/28 10:29:49;;;;;;;9.10;4.60;;;;;;;;;;107629;277;42237;-36
2023/04/28 10:32:29;;;;;;;8.70;4.80;;;;;;;;;;107618;284;39079;-35
2023/04/28 10:35:43;;;;;;;9.30;4.60;;;;;;;;;;107619;284;39835;-36
2023/04/28 10:38:20;;;;;;;8.80;3.90;;;;;;;;;;107558;285;43379;-36
2023/04/28 10:41:00;;;;;;;8.30;4.30;;;;;;;;;;107644;283;42174;-37
2023/04/28 10:43:40;;;;;;;8.50;3.90;;;;;;;;;;107711;283;45451;-35
2023/04/28 10:46:14;;;;;;;7.40;3.70;;;;;;;;;;107700;285;39565;-35
2023/04/28 10:49:08;;;;;;;6.80;3.90;;;;;;;;;;107598;278;44257;-35
2023/04/28 10:51:42;;;;;;;7.50;3.90;;;;;;;;;;107623;283;42464;-35
2023/04/28 10:54:20;;;;;;;7.10;3.80;;;;;;;;;;107632;278;39339;-35
2023/04/28 10:57:23;;;;;;;7.10;3.60;;;;;;;;;;107616;285;39514;-33
2023/04/28 11:00:31;;;;;;;6.60;3.60;;;;;;;;;;107579;285;42917;-33
2023/04/28 11:03:06;;;;;;;7.00;3.40;;;;;;;;;;107534;282;44227;-33
2023/04/28 11:05:40;;;;;;;6.80;3.40;;;;;;;;;;107608;283;40113;-33
2023/04/28 11:08:37;;;;;;;6.20;3.10;;;;;;;;;;107530;284;39726;-33
2023/04/28 11:11:26;;;;;;;7.50;3.20;;;;;;;;;;107615;286;43308;-33
2023/04/28 11:14:35;;;;;;;6.60;3.50;;;;;;;;;;107570;283;42135;-33
2023/04/28 11:17:15;;;;;;;6.70;3.40;;;;;;;;;;107594;285;39090;-33
2023/04/28 11:19:50;;;;;;;5.40;2.80;;;;;;;;;;107602;282;39687;-33
2023/04/28 11:22:26;;;;;;;7.00;3.10;;;;;;;;;;107598;285;42951;-33
2023/04/28 11:25:01;;;;;;;6.10;3.20;;;;;;;;;;107605;283;44206;-33
2023/04/28 11:27:36;;;;;;;6.40;3.00;;;;;;;;;;107605;284;38975;-33
2023/04/28 11:30:27;;;;;;;6.10;2.90;;;;;;;;;;107601;277;39874;-33
2023/04/28 11:33:06;;;;;;;5.20;2.60;;;;;;;;;;107573;283;42918;-33
2023/04/28 11:35:52;;;;;;;6.10;2.70;;;;;;;;;;107618;283;42183;-33
2023/04/28 11:38:27;;;;;;;5.40;2.70;;;;;;;;;;107620;282;40005;-34
2023/04/28 11:41:03;;;;;;;5.20;2.60;;;;;;;;;;107638;282;41929;-33
2023/04/28 11:43:37;;;;;;;5.50;2.70;;;;;;;;;;107629;277;44053;-34
2023/04/28 11:46:25;;;;;;;5.50;2.50;;;;;;;;;;107615;277;43297;-33
2023/04/28 11:49:06;;;;;;;5.00;2.40;;;;;;;;;;107619;283;38839;-33
2023/04/28 11:51:44;;;;;;;5.60;2.60;;;;;;;;;;107629;283;40844;-35
2023/04/28 11:54:26;;;;;;;4.40;2.20;;;;;;;;;;107605;282;42917;-34
2023/04/28 11:57:03;;;;;;;4.60;2.40;;;;;;;;;;107605;282;42500;-34
2023/04/28 11:59:38;;;;;;;5.10;2.40;;;;;;;;;;107645;282;39148;-34
2023/04/28 12:02:15;;;;;;;4.50;2.40;;;;;;;;;;107638;283;39909;-34
2023/04/28 12:04:50;;;;;;;5.00;2.30;;;;;;;;;;107589;282;45152;-34
2023/04/28 12:07:25;;;;;;;5.10;2.20;;;;;;;;;;107601;284;43634;-34
2023/04/28 12:10:25;;;;;;;4.60;2.10;;;;;;;;;;107629;284;38777;-34
2023/04/28 12:12:59;;;;;;;5.00;2.30;;;;;;;;;;107618;277;39757;-34
2023/04/28 12:15:43;;;;;;;4.00;1.90;;;;;;;;;;107557;277;44098;-35
2023/04/28 12:18:18;;;;;;;4.90;2.20;;;;;;;;;;107615;278;43056;-34
2023/04/28 12:20:52;;;;;;;4.70;2.10;;;;;;;;;;107636;277;38801;-34
2023/04/28 12:23:34;;;;;;;5.20;2.20;;;;;;;;;;107638;277;39919;-34
2023/04/28 12:26:08;;;;;;;4.60;2.20;;;;;;;;;;107608;282;44004;-34
2023/04/28 12:28:43;;;;;;;4.80;2.20;;;;;;;;;;107679;285;43345;-35
2023/04/28 12:31:16;;;;;;;4.90;2.20;;;;;;;;;;107634;282;38814;-36
2023/04/28 12:33:50;;;;;;;4.40;1.90;;;;;;;;;;107693;285;39710;-36
2023/04/28 12:36:25;;;;;;;4.40;2.20;;;;;;;;;;107646;277;42694;-34
2023/04/28 12:38:59;;;;;;;4.30;2.00;;;;;;;;;;107720;283;44662;-37
2023/04/28 12:41:32;;;;;;;4.40;2.20;;;;;;;;;;107677;282;38771;-37
2023/04/28 12:44:06;;;;;;;4.50;2.10;;;;;;;;;;107718;284;39739;-35
2023/04/28 12:46:41;;;;;;;5.00;2.20;;;;;;;;;;107689;285;42698;-36
2023/04/28 12:49:15;;;;;;;5.20;2.00;;;;;;;;;;107655;285;43159;-36
2023/04/28 12:51:50;;;;;;;3.70;1.90;;;;;;;;;;107669;285;38543;-36
2023/04/28 12:54:24;;;;;;;4.20;2.10;;;;;;;;;;107642;290;39852;-36
2023/04/28 12:56:59;;;;;;;4.00;2.00;;;;;;;;;;107648;284;44043;-35
2023/04/28 12:59:34;;;;;;;4.50;2.40;;;;;;;;;;107661;284;41947;-35
2023/04/28 13:02:08;;;;;;;4.40;2.30;;;;;;;;;;107625;282;39156;-34
2023/04/28 13:04:44;;;;;;;3.90;2.10;;;;;;;;;;107660;284;39797;-35
2023/04/28 13:07:20;;;;;;;4.50;2.00;;;;;;;;;;107586;277;42948;-33
2023/04/28 13:09:54;;;;;;;4.60;2.00;;;;;;;;;;107595;277;42147;-33
2023/04/28 13:12:27;;;;;;;4.20;2.00;;;;;;;;;;107629;285;39829;-33
2023/04/28 13:15:03;;;;;;;4.20;2.10;;;;;;;;;;107658;282;39501;-34
2023/04/28 13:17:36;;;;;;;4.20;2.00;;;;;;;;;;107594;285;43053;-34
2023/04/28 13:20:12;;;;;;;5.40;2.40;;;;;;;;;;107628;284;42174;-36
2023/04/28 13:22:45;;;;;;;3.90;2.00;;;;;;;;;;107629;284;38802;-33
2023/04/28 13:25:19;;;;;;;5.30;2.20;;;;;;;;;;107629;282;40922;-34
2023/04/28 13:27:52;;;;;;;6.10;2.70;;;;;;;;;;107598;285;44062;-34
2023/04/28 13:30:26;;;;;;;4.80;2.40;;;;;;;;;;107649;284;43295;-34
2023/04/28 13:33:00;;;;;;;4.70;2.10;;;;;;;;;;107627;277;39967;-34
2023/04/28 13:35:35;;;;;;;5.20;2.20;;;;;;;;;;107613;285;39685;-34
2023/04/28 13:38:08;;;;;;;5.20;2.30;;;;;;;;;;107600;282;42923;-34
2023/04/28 13:40:42;;;;;;;4.60;2.20;;;;;;;;;;107646;283;42125;-34
2023/04/28 13:43:15;;;;;;;4.70;2.40;;;;;;;;;;107656;277;38834;-34
2023/04/28 13:45:49;;;;;;;4.60;2.00;;;;;;;;;;107638;277;39684;-34
2023/04/28 13:48:22;;;;;;;4.80;2.20;;;;;;;;;;107692;285;50112;-34
2023/04/28 13:50:56;;;;;;;5.30;2.30;;;;;;;;;;107592;285;42186;-34
2023/04/28 13:53:30;;;;;;;4.60;2.30;;;;;;;;;;107665;283;38512;-34
2023/04/28 13:56:03;;;;;;;4.50;2.40;;;;;;;;;;107625;282;39727;-34
2023/04/28 13:58:37;;;;;;;4.40;2.20;;;;;;;;;;107727;284;51063;-34
2023/04/28 14:01:11;;;;;;;4.50;2.40;;;;;;;;;;107515;284;195246;-34
2023/04/28 14:03:44;;;;;;;4.70;2.40;;;;;;;;;;107605;277;38772;-34
2023/04/28 14:06:18;;;;;;;5.10;2.30;;;;;;;;;;107535;283;41061;-34
2023/04/28 14:08:52;;;;;;;5.40;2.50;;;;;;;;;;107605;284;49764;-34
2023/04/28 14:11:26;;;;;;;5.20;2.40;;;;;;;;;;107611;282;42552;-34
2023/04/28 14:13:59;;;;;;;4.90;2.40;;;;;;;;;;107609;277;38858;-34
2023/04/28 14:16:32;;;;;;;5.90;2.30;;;;;;;;;;107559;283;175562;-34
2023/04/28 14:19:07;;;;;;;4.70;2.20;;;;;;;;;;107603;282;49787;-34
2023/04/28 14:21:41;;;;;;;4.60;2.40;;;;;;;;;;107625;284;44346;-34
2023/04/28 14:24:14;;;;;;;5.30;2.30;;;;;;;;;;107639;285;38562;-34
2023/04/28 14:26:48;;;;;;;4.80;2.50;;;;;;;;;;107647;282;40052;-34
2023/04/28 14:29:22;;;;;;;4.80;2.40;;;;;;;;;;107587;285;49786;-34
2023/04/28 14:31:55;;;;;;;4.30;2.30;;;;;;;;;;107587;286;43337;-34
2023/04/28 14:34:29;;;;;;;4.40;2.30;;;;;;;;;;107618;282;38764;-34
2023/04/28 14:37:02;;;;;;;4.30;2.40;;;;;;;;;;107590;282;39950;-34
2023/04/28 15:03:57;;;;;;;10.50;3.80;;;;;;;;;;104761;309;561480;-39
2023/04/28 15:06:32;;;;;;;11.90;3.60;;;;;;;;;;107311;287;42682;-40
2023/04/28 15:09:09;;;;;;;11.60;3.90;;;;;;;;;;107191;289;175068;-40
2023/04/28 15:11:43;;;;;;;11.80;3.50;;;;;;;;;;107269;289;38810;-40
2023/04/28 15:14:17;;;;;;;10.70;3.80;;;;;;;;;;107265;287;39671;-41
2023/04/28 15:16:50;;;;;;;9.30;3.60;;;;;;;;;;107301;282;558364;-41
2023/04/28 15:19:24;;;;;;;11.20;3.70;;;;;;;;;;107721;275;43371;-41
2023/04/28 15:21:57;;;;;;;11.30;3.90;;;;;;;;;;107794;283;40022;-41
2023/04/28 15:24:31;;;;;;;9.00;3.00;;;;;;;;;;107700;283;39757;-41
2023/04/28 15:27:04;;;;;;;9.00;3.60;;;;;;;;;;107755;275;42863;-41
2023/04/28 15:29:39;;;;;;;8.90;3.50;;;;;;;;;;108036;269;41848;-39
2023/04/28 15:32:13;;;;;;;8.50;3.70;;;;;;;;;;108114;276;38897;-38
2023/04/28 15:34:48;;;;;;;8.00;4.00;;;;;;;;;;108070;272;40984;-38
2023/04/28 15:37:43;;;;;;;8.10;3.50;;;;;;;;;;108139;272;44859;-39
2023/04/28 15:40:18;;;;;;;7.50;3.50;;;;;;;;;;108108;276;43289;-39
2023/04/28 15:42:53;;;;;;;9.50;3.80;;;;;;;;;;108097;272;38877;-39
2023/04/28 15:45:27;;;;;;;6.70;3.40;;;;;;;;;;108094;276;40235;-39
2023/04/28 15:48:00;;;;;;;6.80;3.40;;;;;;;;;;108052;276;42852;-39
2023/04/28 15:50:37;;;;;;;7.50;3.60;;;;;;;;;;108123;276;43352;-39
2023/04/28 15:53:10;;;;;;;7.30;3.80;;;;;;;;;;108115;276;38755;-39
2023/04/28 15:55:44;;;;;;;6.90;3.80;;;;;;;;;;108047;274;47037;-39
2023/04/28 15:58:20;;;;;;;7.80;4.00;;;;;;;;;;108129;272;42809;-39
2023/04/28 16:00:54;;;;;;;7.60;3.60;;;;;;;;;;108129;268;43253;-38